sensor_id;sensor_type;location;lat;lon;timestamp;pressure;altitude;pressure_sealevel;temperature;humidity
61026;BME280;46911;32.650;-16.902;2023-07-02T00:01:57;101736.50;;;22.16;80.59
61026;BME280;46911;32.650;-16.902;2023-07-02T00:04:01;101735.25;;;22.11;80.55
61026;BME280;46911;32.650;-16.902;2023-07-02T00:06:08;101731.16;;;22.06;80.92
61026;BME280;46911;32.650;-16.902;2023-07-02T00:08:14;101728.50;;;22.15;80.76
61026;BME280;46911;32.650;-16.902;2023-07-02T00:10:15;101732.22;;;22.14;80.32
61026;BME280;46911;32.650;-16.902;2023-07-02T00:12:16;101726.78;;;22.14;80.61
61026;BME280;46911;32.650;-16.902;2023-07-02T00:14:16;101737.03;;;22.20;80.54
61026;BME280;46911;32.650;-16.902;2023-07-02T00:16:17;101729.22;;;22.17;80.43
61026;BME280;46911;32.650;-16.902;2023-07-02T00:18:23;101723.06;;;22.15;80.66
61026;BME280;46911;32.650;-16.902;2023-07-02T00:20:24;101718.25;;;22.08;80.66
61026;BME280;46911;32.650;-16.902;2023-07-02T00:22:25;101727.25;;;22.09;80.87
61026;BME280;46911;32.650;-16.902;2023-07-02T00:24:26;101728.09;;;22.10;81.17
61026;BME280;46911;32.650;-16.902;2023-07-02T00:26:29;101730.28;;;22.06;81.39
61026;BME280;46911;32.650;-16.902;2023-07-02T00:28:30;101715.63;;;21.99;81.16
61026;BME280;46911;32.650;-16.902;2023-07-02T00:30:34;101730.44;;;22.04;81.08
61026;BME280;46911;32.650;-16.902;2023-07-02T00:32:34;101724.94;;;21.96;81.38
61026;BME280;46911;32.650;-16.902;2023-07-02T00:34:38;101723.22;;;21.95;81.27
61026;BME280;46911;32.650;-16.902;2023-07-02T00:36:39;101732.31;;;22.04;81.25
61026;BME280;46911;32.650;-16.902;2023-07-02T00:38:44;101736.34;;;22.00;81.54
61026;BME280;46911;32.650;-16.902;2023-07-02T00:40:47;101717.94;;;21.94;81.37
61026;BME280;46911;32.650;-16.902;2023-07-02T00:42:48;101725.63;;;21.98;81.46
61026;BME280;46911;32.650;-16.902;2023-07-02T00:44:49;101709.88;;;21.84;81.85
61026;BME280;46911;32.650;-16.902;2023-07-02T00:46:58;101720.41;;;21.87;82.44
61026;BME280;46911;32.650;-16.902;2023-07-02T00:48:59;101702.25;;;21.69;82.73
61026;BME280;46911;32.650;-16.902;2023-07-02T00:51:02;101722.44;;;21.85;82.74
61026;BME280;46911;32.650;-16.902;2023-07-02T00:53:08;101713.75;;;21.81;82.97
61026;BME280;46911;32.650;-16.902;2023-07-02T00:55:09;101715.91;;;21.78;83.08
61026;BME280;46911;32.650;-16.902;2023-07-02T00:57:10;101712.91;;;21.81;82.79
61026;BME280;46911;32.650;-16.902;2023-07-02T00:59:15;101704.28;;;21.67;83.20
61026;BME280;46911;32.650;-16.902;2023-07-02T01:01:29;101705.44;;;21.65;83.87
61026;BME280;46911;32.650;-16.902;2023-07-02T01:03:36;101700.28;;;21.62;83.99
61026;BME280;46911;32.650;-16.902;2023-07-02T01:05:37;101690.59;;;21.59;83.49
61026;BME280;46911;32.650;-16.902;2023-07-02T01:07:38;101695.03;;;21.60;83.83
61026;BME280;46911;32.650;-16.902;2023-07-02T01:09:39;101699.22;;;21.54;83.83
61026;BME280;46911;32.650;-16.902;2023-07-02T01:11:46;101691.06;;;21.54;83.92
61026;BME280;46911;32.650;-16.902;2023-07-02T01:13:48;101675.81;;;21.44;83.68
61026;BME280;46911;32.650;-16.902;2023-07-02T01:15:53;101685.53;;;21.46;84.36
61026;BME280;46911;32.650;-16.902;2023-07-02T01:18:00;101687.75;;;21.51;84.09
61026;BME280;46911;32.650;-16.902;2023-07-02T01:20:10;101691.19;;;21.53;84.06
61026;BME280;46911;32.650;-16.902;2023-07-02T01:22:12;101679.94;;;21.48;84.07
61026;BME280;46911;32.650;-16.902;2023-07-02T01:24:18;101689.19;;;21.55;84.18
61026;BME280;46911;32.650;-16.902;2023-07-02T01:26:19;101685.16;;;21.59;83.72
61026;BME280;46911;32.650;-16.902;2023-07-02T01:28:20;101685.56;;;21.64;83.56
61026;BME280;46911;32.650;-16.902;2023-07-02T01:30:24;101672.97;;;21.63;83.21
61026;BME280;46911;32.650;-16.902;2023-07-02T01:32:26;101679.38;;;21.72;82.82
61026;BME280;46911;32.650;-16.902;2023-07-02T01:34:31;101693.25;;;21.87;82.59
61026;BME280;46911;32.650;-16.902;2023-07-02T01:36:31;101692.41;;;21.86;82.29
61026;BME280;46911;32.650;-16.902;2023-07-02T01:38:32;101679.94;;;21.76;82.28
61026;BME280;46911;32.650;-16.902;2023-07-02T01:40:33;101689.31;;;21.81;82.23
61026;BME280;46911;32.650;-16.902;2023-07-02T01:42:34;101669.59;;;21.79;82.22
61026;BME280;46911;32.650;-16.902;2023-07-02T01:44:38;101699.47;;;21.97;81.80
61026;BME280;46911;32.650;-16.902;2023-07-02T01:46:39;101694.97;;;21.88;82.01
61026;BME280;46911;32.650;-16.902;2023-07-02T01:48:40;101697.53;;;21.89;82.06
61026;BME280;46911;32.650;-16.902;2023-07-02T01:50:41;101696.22;;;21.94;81.76
61026;BME280;46911;32.650;-16.902;2023-07-02T01:52:42;101698.41;;;21.90;81.78
61026;BME280;46911;32.650;-16.902;2023-07-02T01:54:45;101695.81;;;21.88;81.98
61026;BME280;46911;32.650;-16.902;2023-07-02T01:56:47;101691.25;;;21.89;82.15
61026;BME280;46911;32.650;-16.902;2023-07-02T01:58:48;101692.56;;;21.85;82.32
61026;BME280;46911;32.650;-16.902;2023-07-02T02:00:51;101692.25;;;21.88;82.41
61026;BME280;46911;32.650;-16.902;2023-07-02T02:02:52;101683.72;;;21.83;82.61
61026;BME280;46911;32.650;-16.902;2023-07-02T02:04:52;101680.59;;;21.78;82.46
61026;BME280;46911;32.650;-16.902;2023-07-02T02:06:54;101684.03;;;21.80;82.82
61026;BME280;46911;32.650;-16.902;2023-07-02T02:08:55;101683.03;;;21.81;83.33
61026;BME280;46911;32.650;-16.902;2023-07-02T02:10:58;101684.19;;;21.78;83.21
61026;BME280;46911;32.650;-16.902;2023-07-02T02:13:06;101677.88;;;21.78;83.23
61026;BME280;46911;32.650;-16.902;2023-07-02T02:15:07;101682.16;;;21.80;83.21
61026;BME280;46911;32.650;-16.902;2023-07-02T02:17:08;101671.06;;;21.73;83.27
61026;BME280;46911;32.650;-16.902;2023-07-02T02:19:09;101672.28;;;21.79;83.50
61026;BME280;46911;32.650;-16.902;2023-07-02T02:21:11;101672.78;;;21.74;83.37
61026;BME280;46911;32.650;-16.902;2023-07-02T02:23:12;101671.47;;;21.79;83.39
61026;BME280;46911;32.650;-16.902;2023-07-02T02:25:12;101673.47;;;21.77;83.76
61026;BME280;46911;32.650;-16.902;2023-07-02T02:27:14;101674.16;;;21.79;83.28
61026;BME280;46911;32.650;-16.902;2023-07-02T02:29:14;101664.47;;;21.76;83.50
61026;BME280;46911;32.650;-16.902;2023-07-02T02:31:16;101666.88;;;21.79;83.26
61026;BME280;46911;32.650;-16.902;2023-07-02T02:33:17;101661.59;;;21.78;83.25
61026;BME280;46911;32.650;-16.902;2023-07-02T02:35:19;101653.06;;;21.72;83.28
61026;BME280;46911;32.650;-16.902;2023-07-02T02:37:22;101653.38;;;21.69;83.79
61026;BME280;46911;32.650;-16.902;2023-07-02T02:39:26;101633.75;;;21.57;83.90
61026;BME280;46911;32.650;-16.902;2023-07-02T02:41:29;101647.25;;;21.67;83.78
61026;BME280;46911;32.650;-16.902;2023-07-02T02:43:34;101645.72;;;21.65;84.08
61026;BME280;46911;32.650;-16.902;2023-07-02T02:45:38;101635.63;;;21.57;84.62
61026;BME280;46911;32.650;-16.902;2023-07-02T02:47:40;101639.00;;;21.59;84.03
61026;BME280;46911;32.650;-16.902;2023-07-02T02:49:43;101634.28;;;21.61;84.29
61026;BME280;46911;32.650;-16.902;2023-07-02T02:51:44;101634.97;;;21.63;84.37
61026;BME280;46911;32.650;-16.902;2023-07-02T02:53:45;101626.00;;;21.63;84.44
61026;BME280;46911;32.650;-16.902;2023-07-02T02:55:46;101631.09;;;21.66;84.18
61026;BME280;46911;32.650;-16.902;2023-07-02T02:57:50;101631.97;;;21.66;84.37
61026;BME280;46911;32.650;-16.902;2023-07-02T02:59:54;101616.13;;;21.62;84.17
61026;BME280;46911;32.650;-16.902;2023-07-02T03:01:54;101620.94;;;21.68;84.08
61026;BME280;46911;32.650;-16.902;2023-07-02T03:03:57;101629.66;;;21.71;83.85
61026;BME280;46911;32.650;-16.902;2023-07-02T03:06:01;101623.66;;;21.68;84.07
61026;BME280;46911;32.650;-16.902;2023-07-02T03:08:02;101628.16;;;21.77;83.42
61026;BME280;46911;32.650;-16.902;2023-07-02T03:10:06;101632.72;;;21.77;83.42
61026;BME280;46911;32.650;-16.902;2023-07-02T03:12:10;101633.28;;;21.80;82.91
61026;BME280;46911;32.650;-16.902;2023-07-02T03:14:17;101624.28;;;21.80;83.18
61026;BME280;46911;32.650;-16.902;2023-07-02T03:16:18;101631.28;;;21.82;82.88
61026;BME280;46911;32.650;-16.902;2023-07-02T03:18:22;101628.72;;;21.81;82.65
61026;BME280;46911;32.650;-16.902;2023-07-02T03:20:23;101619.31;;;21.75;83.07
61026;BME280;46911;32.650;-16.902;2023-07-02T03:22:24;101627.28;;;21.77;83.00
61026;BME280;46911;32.650;-16.902;2023-07-02T03:24:25;101626.28;;;21.78;82.38
61026;BME280;46911;32.650;-16.902;2023-07-02T03:26:31;101620.09;;;21.67;82.69
61026;BME280;46911;32.650;-16.902;2023-07-02T03:28:32;101619.41;;;21.65;82.76
61026;BME280;46911;32.650;-16.902;2023-07-02T03:30:35;101635.22;;;21.70;82.87
61026;BME280;46911;32.650;-16.902;2023-07-02T03:32:38;101628.94;;;21.87;81.90
61026;BME280;46911;32.650;-16.902;2023-07-02T03:34:39;101626.84;;;21.81;82.28
61026;BME280;46911;32.650;-16.902;2023-07-02T03:36:42;101622.56;;;21.79;82.13
61026;BME280;46911;32.650;-16.902;2023-07-02T03:38:47;101624.50;;;21.86;81.80
61026;BME280;46911;32.650;-16.902;2023-07-02T03:40:48;101626.94;;;21.71;81.70
61026;BME280;46911;32.650;-16.902;2023-07-02T03:42:48;101633.66;;;21.85;80.98
61026;BME280;46911;32.650;-16.902;2023-07-02T03:44:54;101618.69;;;21.81;80.70
61026;BME280;46911;32.650;-16.902;2023-07-02T03:46:55;101626.91;;;21.89;80.51
61026;BME280;46911;32.650;-16.902;2023-07-02T03:48:56;101615.19;;;21.89;80.52
61026;BME280;46911;32.650;-16.902;2023-07-02T03:50:57;101618.69;;;21.81;80.84
61026;BME280;46911;32.650;-16.902;2023-07-02T03:52:58;101621.41;;;21.81;80.75
61026;BME280;46911;32.650;-16.902;2023-07-02T03:54:59;101620.25;;;21.84;80.43
61026;BME280;46911;32.650;-16.902;2023-07-02T03:57:00;101607.94;;;21.71;80.49
61026;BME280;46911;32.650;-16.902;2023-07-02T03:59:01;101616.53;;;21.85;80.17
61026;BME280;46911;32.650;-16.902;2023-07-02T04:01:04;101618.84;;;21.80;80.46
61026;BME280;46911;32.650;-16.902;2023-07-02T04:03:07;101601.41;;;21.64;80.47
61026;BME280;46911;32.650;-16.902;2023-07-02T04:05:13;101601.00;;;21.59;80.55
61026;BME280;46911;32.650;-16.902;2023-07-02T04:07:14;101617.69;;;21.64;81.00
61026;BME280;46911;32.650;-16.902;2023-07-02T04:09:16;101608.22;;;21.68;80.93
61026;BME280;46911;32.650;-16.902;2023-07-02T04:11:18;101601.72;;;21.61;80.83
61026;BME280;46911;32.650;-16.902;2023-07-02T04:13:22;101605.09;;;21.63;80.82
61026;BME280;46911;32.650;-16.902;2023-07-02T04:15:23;101609.47;;;21.74;80.60
61026;BME280;46911;32.650;-16.902;2023-07-02T04:17:25;101608.38;;;21.67;80.73
61026;BME280;46911;32.650;-16.902;2023-07-02T04:19:25;101606.53;;;21.67;80.93
61026;BME280;46911;32.650;-16.902;2023-07-02T04:21:26;101615.34;;;21.69;80.51
61026;BME280;46911;32.650;-16.902;2023-07-02T04:23:30;101615.91;;;21.73;80.41
61026;BME280;46911;32.650;-16.902;2023-07-02T04:25:31;101617.31;;;21.77;80.06
61026;BME280;46911;32.650;-16.902;2023-07-02T04:27:31;101601.56;;;21.81;79.33
61026;BME280;46911;32.650;-16.902;2023-07-02T04:29:37;101610.28;;;21.93;78.90
61026;BME280;46911;32.650;-16.902;2023-07-02T04:31:38;101602.63;;;21.88;78.61
61026;BME280;46911;32.650;-16.902;2023-07-02T04:33:39;101598.84;;;21.81;78.82
61026;BME280;46911;32.650;-16.902;2023-07-02T04:35:40;101597.13;;;21.80;78.97
61026;BME280;46911;32.650;-16.902;2023-07-02T04:37:41;101610.38;;;21.83;79.17
61026;BME280;46911;32.650;-16.902;2023-07-02T04:39:42;101597.81;;;21.82;79.16
61026;BME280;46911;32.650;-16.902;2023-07-02T04:41:43;101604.78;;;21.84;79.18
61026;BME280;46911;32.650;-16.902;2023-07-02T04:43:44;101613.88;;;21.93;79.02
61026;BME280;46911;32.650;-16.902;2023-07-02T04:45:48;101607.72;;;21.91;78.90
61026;BME280;46911;32.650;-16.902;2023-07-02T04:47:49;101607.13;;;21.79;79.88
61026;BME280;46911;32.650;-16.902;2023-07-02T04:49:52;101613.88;;;21.93;79.90
61026;BME280;46911;32.650;-16.902;2023-07-02T04:51:53;101613.81;;;21.85;79.79
61026;BME280;46911;32.650;-16.902;2023-07-02T04:53:54;101615.38;;;21.87;79.45
61026;BME280;46911;32.650;-16.902;2023-07-02T04:55:58;101618.38;;;21.84;79.84
61026;BME280;46911;32.650;-16.902;2023-07-02T04:57:59;101616.25;;;21.96;79.16
61026;BME280;46911;32.650;-16.902;2023-07-02T05:00:00;101623.19;;;21.90;78.98
61026;BME280;46911;32.650;-16.902;2023-07-02T05:02:01;101627.06;;;21.88;78.93
61026;BME280;46911;32.650;-16.902;2023-07-02T05:04:02;101627.06;;;21.88;78.99
61026;BME280;46911;32.650;-16.902;2023-07-02T05:06:03;101627.41;;;21.85;77.94
61026;BME280;46911;32.650;-16.902;2023-07-02T05:08:06;101618.91;;;21.88;77.81
61026;BME280;46911;32.650;-16.902;2023-07-02T05:10:08;101619.53;;;21.82;77.91
61026;BME280;46911;32.650;-16.902;2023-07-02T05:12:09;101620.41;;;21.82;78.95
61026;BME280;46911;32.650;-16.902;2023-07-02T05:14:12;101620.63;;;21.89;78.86
61026;BME280;46911;32.650;-16.902;2023-07-02T05:16:14;101627.22;;;21.86;79.64
61026;BME280;46911;32.650;-16.902;2023-07-02T05:18:15;101632.81;;;21.85;78.97
61026;BME280;46911;32.650;-16.902;2023-07-02T05:20:18;101623.97;;;21.83;78.57
61026;BME280;46911;32.650;-16.902;2023-07-02T05:22:19;101627.84;;;21.80;78.60
61026;BME280;46911;32.650;-16.902;2023-07-02T05:24:22;101622.97;;;21.84;77.77
61026;BME280;46911;32.650;-16.902;2023-07-02T05:26:26;101625.84;;;21.82;78.11
61026;BME280;46911;32.650;-16.902;2023-07-02T05:28:27;101587.97;;;21.63;76.26
61026;BME280;46911;32.650;-16.902;2023-07-02T05:30:28;101622.97;;;21.84;75.64
61026;BME280;46911;32.650;-16.902;2023-07-02T05:32:29;101624.19;;;21.89;77.17
61026;BME280;46911;32.650;-16.902;2023-07-02T05:34:32;101618.38;;;21.84;77.69
61026;BME280;46911;32.650;-16.902;2023-07-02T05:36:33;101620.56;;;21.81;77.56
61026;BME280;46911;32.650;-16.902;2023-07-02T05:38:35;101615.25;;;21.79;76.62
61026;BME280;46911;32.650;-16.902;2023-07-02T05:40:36;101622.81;;;21.85;76.16
61026;BME280;46911;32.650;-16.902;2023-07-02T05:42:37;101620.41;;;21.82;76.56
61026;BME280;46911;32.650;-16.902;2023-07-02T05:44:40;101618.69;;;21.81;76.85
61026;BME280;46911;32.650;-16.902;2023-07-02T05:46:42;101617.13;;;21.79;76.85
61026;BME280;46911;32.650;-16.902;2023-07-02T05:48:45;101616.44;;;21.77;77.24
61026;BME280;46911;32.650;-16.902;2023-07-02T05:50:46;101607.06;;;21.71;77.77
61026;BME280;46911;32.650;-16.902;2023-07-02T05:52:47;101617.06;;;21.70;77.98
61026;BME280;46911;32.650;-16.902;2023-07-02T05:54:48;101597.28;;;21.60;78.59
61026;BME280;46911;32.650;-16.902;2023-07-02T05:56:51;101609.16;;;21.59;78.68
61026;BME280;46911;32.650;-16.902;2023-07-02T05:58:56;101616.44;;;21.59;79.05
61026;BME280;46911;32.650;-16.902;2023-07-02T06:00:57;101620.56;;;21.63;78.87
61026;BME280;46911;32.650;-16.902;2023-07-02T06:02:58;101627.00;;;21.62;79.01
61026;BME280;46911;32.650;-16.902;2023-07-02T06:04:59;101627.78;;;21.54;79.35
61026;BME280;46911;32.650;-16.902;2023-07-02T06:07:02;101623.25;;;21.45;80.05
61026;BME280;46911;32.650;-16.902;2023-07-02T06:09:06;101637.66;;;21.45;80.17
61026;BME280;46911;32.650;-16.902;2023-07-02T06:11:10;101613.50;;;21.24;80.95
61026;BME280;46911;32.650;-16.902;2023-07-02T06:13:11;101626.91;;;21.26;80.87
61026;BME280;46911;32.650;-16.902;2023-07-02T06:15:12;101623.28;;;21.17;80.99
61026;BME280;46911;32.650;-16.902;2023-07-02T06:17:13;101631.69;;;21.14;81.04
61026;BME280;46911;32.650;-16.902;2023-07-02T06:19:14;101634.72;;;21.11;81.30
61026;BME280;46911;32.650;-16.902;2023-07-02T06:21:17;101639.59;;;21.07;81.14
61026;BME280;46911;32.650;-16.902;2023-07-02T06:23:18;101632.91;;;21.01;80.78
61026;BME280;46911;32.650;-16.902;2023-07-02T06:25:21;101652.47;;;21.05;80.43
61026;BME280;46911;32.650;-16.902;2023-07-02T06:27:22;101640.06;;;21.02;80.51
61026;BME280;46911;32.650;-16.902;2023-07-02T06:29:23;101646.03;;;21.06;80.68
61026;BME280;46911;32.650;-16.902;2023-07-02T06:31:24;101643.78;;;21.01;80.82
61026;BME280;46911;32.650;-16.902;2023-07-02T06:33:25;101650.59;;;21.05;80.81
61026;BME280;46911;32.650;-16.902;2023-07-02T06:35:29;101647.47;;;21.00;80.43
61026;BME280;46911;32.650;-16.902;2023-07-02T06:37:35;101647.88;;;21.05;80.95
61026;BME280;46911;32.650;-16.902;2023-07-02T06:39:41;101647.78;;;20.97;81.06
61026;BME280;46911;32.650;-16.902;2023-07-02T06:41:42;101640.38;;;20.99;80.84
61026;BME280;46911;32.650;-16.902;2023-07-02T06:43:43;101647.59;;;21.09;81.16
61026;BME280;46911;32.650;-16.902;2023-07-02T06:45:47;101641.78;;;21.03;81.55
61026;BME280;46911;32.650;-16.902;2023-07-02T06:47:49;101651.31;;;21.07;81.43
61026;BME280;46911;32.650;-16.902;2023-07-02T06:49:52;101657.75;;;21.06;81.56
61026;BME280;46911;32.650;-16.902;2023-07-02T06:51:53;101655.75;;;21.09;82.23
61026;BME280;46911;32.650;-16.902;2023-07-02T06:53:56;101653.16;;;21.07;82.41
61026;BME280;46911;32.650;-16.902;2023-07-02T06:55:57;101645.75;;;21.09;82.15
61026;BME280;46911;32.650;-16.902;2023-07-02T06:57:58;101649.69;;;21.15;82.29
61026;BME280;46911;32.650;-16.902;2023-07-02T06:59:59;101649.41;;;21.18;82.27
61026;BME280;46911;32.650;-16.902;2023-07-02T07:02:05;101654.84;;;21.18;82.78
61026;BME280;46911;32.650;-16.902;2023-07-02T07:04:05;101654.53;;;21.21;82.53
61026;BME280;46911;32.650;-16.902;2023-07-02T07:06:09;101642.28;;;21.17;81.83
61026;BME280;46911;32.650;-16.902;2023-07-02T07:08:10;101656.25;;;21.22;81.56
61026;BME280;46911;32.650;-16.902;2023-07-02T07:10:11;101657.94;;;21.23;81.36
61026;BME280;46911;32.650;-16.902;2023-07-02T07:12:12;101648.94;;;21.22;80.96
61026;BME280;46911;32.650;-16.902;2023-07-02T07:14:12;101646.22;;;21.22;80.72
61026;BME280;46911;32.650;-16.902;2023-07-02T07:16:13;101662.16;;;21.35;80.72
61026;BME280;46911;32.650;-16.902;2023-07-02T07:18:14;101662.84;;;21.37;80.75
61026;BME280;46911;32.650;-16.902;2023-07-02T07:20:15;101665.25;;;21.40;80.27
61026;BME280;46911;32.650;-16.902;2023-07-02T07:22:16;101665.66;;;21.46;79.99
61026;BME280;46911;32.650;-16.902;2023-07-02T07:24:17;101671.78;;;21.48;79.91
61026;BME280;46911;32.650;-16.902;2023-07-02T07:26:18;101664.66;;;21.47;80.54
61026;BME280;46911;32.650;-16.902;2023-07-02T07:28:19;101677.19;;;21.57;80.17
61026;BME280;46911;32.650;-16.902;2023-07-02T07:30:25;101671.91;;;21.56;80.21
61026;BME280;46911;32.650;-16.902;2023-07-02T07:32:26;101665.22;;;21.50;79.73
61026;BME280;46911;32.650;-16.902;2023-07-02T07:34:29;101668.44;;;21.64;79.75
61026;BME280;46911;32.650;-16.902;2023-07-02T07:36:32;101674.41;;;21.67;79.12
61026;BME280;46911;32.650;-16.902;2023-07-02T07:38:33;101673.09;;;21.71;78.83
61026;BME280;46911;32.650;-16.902;2023-07-02T07:40:34;101678.13;;;21.84;78.28
61026;BME280;46911;32.650;-16.902;2023-07-02T07:42:35;101678.34;;;21.91;78.00
61026;BME280;46911;32.650;-16.902;2023-07-02T07:44:36;101686.50;;;21.91;77.03
61026;BME280;46911;32.650;-16.902;2023-07-02T07:46:37;101692.00;;;21.99;76.92
61026;BME280;46911;32.650;-16.902;2023-07-02T07:48:41;101695.81;;;22.06;76.86
61026;BME280;46911;32.650;-16.902;2023-07-02T07:50:44;101679.69;;;22.05;76.13
61026;BME280;46911;32.650;-16.902;2023-07-02T07:52:45;101692.09;;;22.07;75.69
61026;BME280;46911;32.650;-16.902;2023-07-02T07:54:48;101699.53;;;22.05;75.67
61026;BME280;46911;32.650;-16.902;2023-07-02T07:56:49;101701.41;;;22.05;76.01
61026;BME280;46911;32.650;-16.902;2023-07-02T07:58:50;101703.81;;;22.08;75.56
61026;BME280;46911;32.650;-16.902;2023-07-02T08:00:51;101708.94;;;22.11;75.62
61026;BME280;46911;32.650;-16.902;2023-07-02T08:02:52;101686.19;;;22.12;75.28
61026;BME280;46911;32.650;-16.902;2023-07-02T08:04:58;101698.44;;;22.34;74.72
61026;BME280;46911;32.650;-16.902;2023-07-02T08:07:03;101708.13;;;22.55;74.37
61026;BME280;46911;32.650;-16.902;2023-07-02T08:09:09;101708.13;;;22.55;73.22
61026;BME280;46911;32.650;-16.902;2023-07-02T08:11:13;101697.78;;;22.59;72.61
61026;BME280;46911;32.650;-16.902;2023-07-02T08:13:21;101693.72;;;22.36;73.45
61026;BME280;46911;32.650;-16.902;2023-07-02T08:15:24;101716.34;;;22.63;73.15
61026;BME280;46911;32.650;-16.902;2023-07-02T08:17:27;101718.59;;;22.68;72.27
61026;BME280;46911;32.650;-16.902;2023-07-02T08:19:31;101710.94;;;22.71;71.94
61026;BME280;46911;32.650;-16.902;2023-07-02T08:21:32;101715.31;;;22.64;72.27
61026;BME280;46911;32.650;-16.902;2023-07-02T08:23:35;101716.72;;;22.68;72.32
61026;BME280;46911;32.650;-16.902;2023-07-02T08:25:42;101720.00;;;22.54;72.53
61026;BME280;46911;32.650;-16.902;2023-07-02T08:27:43;101724.38;;;22.47;72.47
61026;BME280;46911;32.650;-16.902;2023-07-02T08:29:49;101729.25;;;22.61;72.52
61026;BME280;46911;32.650;-16.902;2023-07-02T08:31:50;101720.34;;;22.77;71.90
61026;BME280;46911;32.650;-16.902;2023-07-02T08:33:51;101721.44;;;23.19;71.25
61026;BME280;46911;32.650;-16.902;2023-07-02T08:35:55;101720.91;;;23.66;69.74
61026;BME280;46911;32.650;-16.902;2023-07-02T08:37:56;101722.16;;;23.80;67.76
61026;BME280;46911;32.650;-16.902;2023-07-02T08:39:57;101719.78;;;23.85;67.71
61026;BME280;46911;32.650;-16.902;2023-07-02T08:41:58;101716.28;;;24.01;66.96
61026;BME280;46911;32.650;-16.902;2023-07-02T08:43:59;101717.28;;;24.17;66.93
61026;BME280;46911;32.650;-16.902;2023-07-02T08:46:00;101717.47;;;24.07;67.30
61026;BME280;46911;32.650;-16.902;2023-07-02T08:48:03;101724.78;;;24.23;67.14
61026;BME280;46911;32.650;-16.902;2023-07-02T08:50:04;101720.66;;;24.52;64.87
61026;BME280;46911;32.650;-16.902;2023-07-02T08:52:08;101724.44;;;24.59;64.68
61026;BME280;46911;32.650;-16.902;2023-07-02T08:54:12;101729.72;;;24.69;64.53
61026;BME280;46911;32.650;-16.902;2023-07-02T08:56:13;101727.88;;;24.69;65.06
61026;BME280;46911;32.650;-16.902;2023-07-02T08:58:16;101726.97;;;24.85;64.80
61026;BME280;46911;32.650;-16.902;2023-07-02T09:00:21;101725.53;;;25.06;63.57
61026;BME280;46911;32.650;-16.902;2023-07-02T09:02:34;101714.78;;;25.13;62.68
61026;BME280;46911;32.650;-16.902;2023-07-02T09:04:37;101728.78;;;25.10;62.98
61026;BME280;46911;32.650;-16.902;2023-07-02T09:06:38;101732.94;;;24.81;63.87
61026;BME280;46911;32.650;-16.902;2023-07-02T09:08:39;101731.84;;;25.06;63.48
61026;BME280;46911;32.650;-16.902;2023-07-02T09:10:42;101739.06;;;24.91;63.55
61026;BME280;46911;32.650;-16.902;2023-07-02T09:12:45;101732.63;;;24.67;63.68
61026;BME280;46911;32.650;-16.902;2023-07-02T09:17:02;101733.00;;;24.64;64.24
61026;BME280;46911;32.650;-16.902;2023-07-02T09:19:05;101727.59;;;25.04;63.21
61026;BME280;46911;32.650;-16.902;2023-07-02T09:21:10;101732.81;;;25.22;62.64
61026;BME280;46911;32.650;-16.902;2023-07-02T09:23:15;101729.72;;;25.42;61.66
61026;BME280;46911;32.650;-16.902;2023-07-02T09:25:16;101739.84;;;25.64;61.26
61026;BME280;46911;32.650;-16.902;2023-07-02T09:27:17;101736.78;;;25.59;61.53
61026;BME280;46911;32.650;-16.902;2023-07-02T09:29:28;101741.34;;;25.67;61.39
61026;BME280;46911;32.650;-16.902;2023-07-02T09:31:29;101742.91;;;25.61;61.31
61026;BME280;46911;32.650;-16.902;2023-07-02T09:33:32;101729.03;;;25.39;61.58
61026;BME280;46911;32.650;-16.902;2023-07-02T09:35:33;101738.31;;;25.14;62.68
61026;BME280;46911;32.650;-16.902;2023-07-02T09:37:34;101724.16;;;25.10;62.86
61026;BME280;46911;32.650;-16.902;2023-07-02T09:39:36;101730.19;;;25.45;62.52
61026;BME280;46911;32.650;-16.902;2023-07-02T09:41:38;101730.13;;;25.85;60.78
61026;BME280;46911;32.650;-16.902;2023-07-02T09:43:40;101722.00;;;26.00;60.36
61026;BME280;46911;32.650;-16.902;2023-07-02T09:45:46;101733.88;;;26.77;57.98
61026;BME280;46911;32.650;-16.902;2023-07-02T09:47:53;101735.94;;;27.49;56.07
61026;BME280;46911;32.650;-16.902;2023-07-02T09:49:59;101715.38;;;27.09;56.48
61026;BME280;46911;32.650;-16.902;2023-07-02T09:52:10;101736.78;;;27.35;56.05
61026;BME280;46911;32.650;-16.902;2023-07-02T09:54:15;101723.84;;;27.14;56.70
61026;BME280;46911;32.650;-16.902;2023-07-02T09:56:23;101735.00;;;27.57;55.55
61026;BME280;46911;32.650;-16.902;2023-07-02T09:58:26;101733.41;;;27.33;55.27
61026;BME280;46911;32.650;-16.902;2023-07-02T10:00:27;101727.25;;;27.31;55.52
61026;BME280;46911;32.650;-16.902;2023-07-02T10:02:28;101726.22;;;27.47;55.30
61026;BME280;46911;32.650;-16.902;2023-07-02T10:04:45;101728.56;;;27.65;54.65
61026;BME280;46911;32.650;-16.902;2023-07-02T10:06:48;101730.16;;;27.59;54.65
61026;BME280;46911;32.650;-16.902;2023-07-02T10:08:55;101729.63;;;27.49;54.90
61026;BME280;46911;32.650;-16.902;2023-07-02T10:11:09;101730.47;;;27.49;54.95
61026;BME280;46911;32.650;-16.902;2023-07-02T10:13:10;101737.56;;;27.29;55.51
61026;BME280;46911;32.650;-16.902;2023-07-02T10:15:24;101723.19;;;27.42;54.97
61026;BME280;46911;32.650;-16.902;2023-07-02T10:19:31;101728.75;;;27.33;55.06
61026;BME280;46911;32.650;-16.902;2023-07-02T10:21:32;101725.84;;;27.20;56.06
61026;BME280;46911;32.650;-16.902;2023-07-02T10:23:34;101737.94;;;27.40;55.30
61026;BME280;46911;32.650;-16.902;2023-07-02T10:25:40;101721.88;;;26.78;57.10
61026;BME280;46911;32.650;-16.902;2023-07-02T10:27:45;101727.19;;;26.94;56.61
61026;BME280;46911;32.650;-16.902;2023-07-02T10:29:52;101727.09;;;27.02;56.72